createdAt,value
2019-01-24T00:00:23.649Z,24.20
2019-01-24T00:02:52.831Z,24.20
2019-01-24T00:05:21.760Z,24.77
2019-01-24T00:07:50.403Z,24.97
2019-01-24T00:10:19.495Z,25.27
2019-01-24T00:12:50.278Z,24.27
2019-01-24T00:15:19.365Z,24.95
2019-01-24T00:17:48.562Z,24.82
2019-01-24T00:20:17.300Z,25.27
2019-01-24T00:22:46.730Z,26.23
2019-01-24T00:25:15.536Z,23.37
2019-01-24T00:27:44.397Z,24.32
2019-01-24T00:30:16.443Z,25.15
2019-01-24T00:32:45.436Z,25.37
2019-01-24T00:35:14.694Z,25.20
2019-01-24T00:37:44.034Z,23.38
2019-01-24T00:40:16.242Z,26.70
2019-01-24T00:42:44.957Z,25.57
2019-01-24T00:45:14.429Z,26.30
2019-01-24T00:47:43.584Z,27.35
2019-01-24T00:50:14.796Z,25.92
2019-01-24T00:52:43.835Z,26.67
2019-01-24T00:55:14.757Z,25.85
2019-01-24T00:57:43.518Z,26.97
2019-01-24T01:00:18.360Z,26.00
2019-01-24T01:02:47.199Z,28.87
2019-01-24T01:05:15.962Z,27.00
2019-01-24T01:07:45.078Z,25.20
2019-01-24T01:10:14.805Z,25.87
2019-01-24T01:12:44.252Z,26.25
2019-01-24T01:15:20.102Z,27.98
2019-01-24T01:17:49.182Z,27.33
2019-01-24T01:20:19.951Z,26.17
2019-01-24T01:22:48.955Z,25.47
2019-01-24T01:25:18.630Z,28.67
2019-01-24T01:27:47.865Z,28.00
2019-01-24T01:30:22.122Z,29.12
2019-01-24T01:32:51.235Z,25.77
2019-01-24T01:35:20.428Z,24.77
2019-01-24T01:37:49.559Z,25.65
2019-01-24T01:40:19.926Z,29.23
2019-01-24T01:42:49.476Z,28.65
2019-01-24T01:45:20.378Z,26.10
2019-01-24T01:47:49.524Z,25.92
2019-01-24T01:50:21.205Z,25.92
2019-01-24T01:52:51.861Z,26.13
2019-01-24T01:55:20.802Z,26.30
2019-01-24T01:57:49.805Z,25.32
2019-01-24T02:00:23.334Z,26.77
2019-01-24T02:02:52.488Z,27.48
2019-01-24T02:05:21.601Z,27.77
2019-01-24T02:07:51.552Z,28.07
2019-01-24T02:10:23.154Z,26.73
2019-01-24T02:12:52.310Z,27.40
2019-01-24T02:15:22.211Z,26.60
2019-01-24T02:17:51.656Z,28.32
2019-01-24T02:20:24.662Z,28.38
2019-01-24T02:22:53.913Z,28.23
2019-01-24T02:25:23.134Z,27.93
2019-01-24T02:27:52.186Z,27.32
2019-01-24T02:30:24.291Z,28.17
2019-01-24T02:32:53.730Z,26.55
2019-01-24T02:35:22.527Z,29.23
2019-01-24T02:37:51.268Z,29.97
2019-01-24T02:40:21.046Z,27.10
2019-01-24T02:42:49.820Z,25.77
2019-01-24T02:45:21.155Z,26.30
2019-01-24T02:47:50.304Z,25.25
2019-01-24T02:50:21.136Z,28.32
2019-01-24T02:52:50.042Z,28.77
2019-01-24T02:55:19.426Z,28.38
2019-01-24T02:57:48.476Z,29.50
2019-01-24T03:00:19.699Z,28.60
2019-01-24T03:02:48.613Z,27.37
2019-01-24T03:05:19.673Z,28.17
2019-01-24T03:07:49.619Z,27.60
2019-01-24T03:10:18.763Z,28.32
2019-01-24T03:12:47.589Z,27.07
2019-01-24T03:15:22.928Z,30.40
2019-01-24T03:17:51.801Z,25.40
2019-01-24T03:20:21.221Z,28.33
2019-01-24T03:22:50.422Z,26.75
2019-01-24T03:25:19.512Z,24.92
2019-01-24T03:27:48.349Z,28.03
2019-01-24T03:30:19.604Z,26.30
2019-01-24T03:32:48.640Z,28.23
2019-01-24T03:35:25.716Z,24.18
2019-01-24T03:37:54.875Z,28.33
2019-01-24T03:40:24.183Z,26.20
2019-01-24T03:42:53.815Z,27.52
2019-01-24T03:45:22.882Z,28.05
2019-01-24T03:47:51.907Z,28.02
2019-01-24T03:50:22.018Z,25.97
2019-01-24T03:52:51.933Z,27.15
2019-01-24T03:55:21.891Z,27.98
2019-01-24T03:57:52.372Z,28.10
2019-01-24T04:00:25.682Z,28.93
2019-01-24T04:02:54.765Z,27.73
2019-01-24T04:05:23.868Z,26.67
2019-01-24T04:07:52.906Z,28.27
2019-01-24T04:10:22.758Z,27.60
2019-01-24T04:12:52.013Z,28.90
2019-01-24T04:15:28.552Z,27.85
2019-01-24T04:17:57.982Z,25.70
2019-01-24T04:20:26.753Z,27.90
2019-01-24T04:22:55.676Z,27.98
2019-01-24T04:25:24.642Z,27.62
2019-01-24T04:27:53.438Z,27.87
2019-01-24T04:30:23.166Z,27.42
2019-01-24T04:32:51.939Z,27.30
2019-01-24T04:35:20.964Z,26.52
2019-01-24T04:37:50.025Z,26.45
2019-01-24T04:40:20.317Z,28.10
2019-01-24T04:42:49.760Z,28.73
2019-01-24T04:45:19.101Z,30.48
2019-01-24T04:47:48.083Z,29.23
2019-01-24T04:50:18.745Z,27.80
2019-01-24T04:52:47.958Z,28.90
2019-01-24T04:55:18.588Z,29.85
2019-01-24T04:57:47.639Z,30.68
2019-01-24T05:00:22.680Z,29.37
2019-01-24T05:02:51.708Z,30.48
2019-01-24T05:05:27.604Z,31.12
2019-01-24T05:07:52.847Z,31.15
2019-01-24T05:10:21.857Z,29.95
2019-01-24T05:12:52.265Z,29.25
2019-01-24T05:15:21.279Z,31.57
2019-01-24T05:17:50.239Z,28.90
2019-01-24T05:20:19.356Z,29.50
2019-01-24T05:22:48.329Z,30.23
2019-01-24T05:25:18.285Z,30.20
2019-01-24T05:27:47.367Z,31.85
2019-01-24T05:30:19.911Z,29.67
2019-01-24T05:32:48.875Z,30.75
2019-01-24T05:35:18.016Z,29.92
2019-01-24T05:37:46.689Z,29.50
2019-01-24T05:40:16.245Z,30.20
2019-01-24T05:42:46.188Z,31.70
2019-01-24T05:45:15.825Z,29.90
2019-01-24T05:47:44.880Z,30.88
2019-01-24T05:50:14.523Z,31.25
2019-01-24T05:52:43.442Z,30.72
2019-01-24T05:55:13.987Z,31.10
2019-01-24T05:57:43.232Z,32.03
2019-01-24T06:00:20.050Z,32.30
2019-01-24T06:02:49.206Z,31.23
2019-01-24T06:05:19.017Z,33.25
2019-01-24T06:07:48.346Z,30.20
2019-01-24T06:10:18.307Z,29.63
2019-01-24T06:12:47.325Z,31.80
2019-01-24T06:15:17.414Z,29.13
2019-01-24T06:17:48.475Z,31.10
2019-01-24T06:20:17.519Z,30.27
2019-01-24T06:22:46.506Z,31.30
2019-01-24T06:25:16.072Z,30.43
2019-01-24T06:27:45.378Z,29.37
2019-01-24T06:30:19.459Z,31.05
2019-01-24T06:32:48.613Z,29.57
2019-01-24T06:35:17.741Z,30.75
2019-01-24T06:37:46.731Z,30.37
2019-01-24T06:40:16.659Z,31.68
2019-01-24T06:42:45.462Z,32.17
2019-01-24T06:45:19.922Z,31.90
2019-01-24T06:47:49.017Z,34.25
2019-01-24T06:50:19.239Z,33.55
2019-01-24T06:52:47.922Z,35.37
2019-01-24T06:55:25.317Z,33.15
2019-01-24T06:57:54.771Z,33.63
2019-01-24T07:00:23.804Z,34.25
2019-01-24T07:02:52.661Z,31.60
2019-01-24T07:05:21.643Z,36.38
2019-01-24T07:07:50.660Z,33.55
2019-01-24T07:10:21.510Z,33.23
2019-01-24T07:12:50.910Z,33.13
2019-01-24T07:15:21.939Z,33.83
2019-01-24T07:17:50.940Z,34.53
2019-01-24T07:20:21.661Z,32.65
2019-01-24T07:22:50.730Z,32.53
2019-01-24T07:25:22.159Z,34.30
2019-01-24T07:27:51.517Z,32.53
2019-01-24T07:30:21.509Z,31.07
2019-01-24T07:32:50.579Z,30.90
2019-01-24T07:35:20.521Z,34.90
2019-01-24T07:37:49.999Z,32.40
2019-01-24T07:40:20.169Z,31.75
2019-01-24T07:42:49.819Z,32.67
2019-01-24T07:45:30.562Z,33.85
2019-01-24T07:47:59.538Z,31.90
2019-01-24T07:50:28.906Z,33.25
2019-01-24T07:52:58.317Z,33.60
2019-01-24T07:55:27.316Z,30.95
2019-01-24T07:57:55.995Z,31.57
2019-01-24T08:00:29.396Z,32.17
2019-01-24T08:02:58.592Z,32.23
2019-01-24T08:05:29.534Z,32.50
2019-01-24T08:07:58.420Z,31.33
2019-01-24T08:10:27.575Z,32.00
2019-01-24T08:12:56.971Z,32.20
2019-01-24T08:15:27.081Z,31.77
2019-01-24T08:17:55.963Z,32.48
2019-01-24T08:20:27.105Z,34.45
2019-01-24T08:22:57.553Z,33.02
2019-01-24T08:25:27.067Z,33.13
2019-01-24T08:27:56.185Z,32.85
2019-01-24T08:30:30.654Z,33.53
2019-01-24T08:32:59.656Z,32.95
2019-01-24T08:35:28.851Z,33.95
2019-01-24T08:37:57.536Z,31.07
2019-01-24T08:40:26.569Z,31.50
2019-01-24T08:42:55.519Z,33.50
2019-01-24T08:45:24.434Z,31.97
2019-01-24T08:47:53.707Z,31.55
2019-01-24T08:50:25.247Z,34.75
2019-01-24T08:52:54.687Z,34.18
2019-01-24T08:55:26.970Z,31.75
2019-01-24T08:57:56.124Z,31.83
2019-01-24T09:00:25.054Z,32.50
2019-01-24T09:02:54.334Z,33.33
2019-01-24T09:05:23.918Z,31.30
2019-01-24T09:07:52.703Z,34.10
2019-01-24T09:10:24.135Z,33.70
2019-01-24T09:12:52.981Z,32.57
2019-01-24T09:15:21.831Z,35.57
2019-01-24T09:17:50.759Z,33.80
2019-01-24T09:20:20.673Z,35.00
2019-01-24T09:22:55.163Z,34.30
2019-01-24T09:25:19.844Z,33.57
2019-01-24T09:27:48.654Z,32.63
2019-01-24T09:30:23.033Z,32.10
2019-01-24T09:32:51.836Z,33.60
2019-01-24T09:35:20.618Z,35.27
2019-01-24T09:37:49.411Z,32.50
2019-01-24T09:40:22.526Z,33.00
2019-01-24T09:42:51.277Z,35.40
2019-01-24T09:45:28.035Z,34.57
2019-01-24T09:47:58.624Z,36.27
2019-01-24T09:50:28.538Z,33.43
2019-01-24T09:52:57.801Z,36.20
2019-01-24T09:55:27.142Z,34.87
2019-01-24T09:57:56.022Z,34.10
2019-01-24T10:00:27.737Z,34.20
2019-01-24T10:02:56.746Z,34.00
2019-01-24T10:05:25.443Z,35.87
2019-01-24T10:07:54.342Z,34.50
2019-01-24T10:10:27.628Z,32.97
2019-01-24T10:12:57.772Z,34.83
2019-01-24T10:15:26.702Z,35.83
2019-01-24T10:17:57.453Z,36.27
2019-01-24T10:20:27.857Z,38.30
2019-01-24T10:22:56.978Z,34.23
2019-01-24T10:25:28.067Z,35.17
2019-01-24T10:27:56.828Z,34.17
2019-01-24T10:30:26.421Z,36.57
2019-01-24T10:32:55.828Z,36.00
2019-01-24T10:35:24.884Z,33.90
2019-01-24T10:37:54.075Z,35.90
2019-01-24T10:40:27.943Z,33.77
2019-01-24T10:42:57.177Z,35.23
2019-01-24T10:45:26.036Z,33.43
2019-01-24T10:47:55.208Z,35.37
2019-01-24T10:50:26.463Z,36.87
2019-01-24T10:52:55.440Z,34.50
2019-01-24T10:55:26.480Z,33.67
2019-01-24T10:57:57.311Z,31.97
2019-01-24T11:00:30.117Z,36.03
2019-01-24T11:02:58.641Z,33.70
2019-01-24T11:05:27.469Z,33.10
2019-01-24T11:07:56.658Z,33.53
2019-01-24T11:10:25.398Z,32.20
2019-01-24T11:12:54.113Z,35.20
2019-01-24T11:15:24.212Z,35.50
2019-01-24T11:17:53.344Z,32.10
2019-01-24T11:20:22.099Z,34.30
2019-01-24T11:22:51.184Z,32.80
2019-01-24T11:25:24.566Z,32.67
2019-01-24T11:27:53.311Z,35.33
2019-01-24T11:30:30.062Z,34.73
2019-01-24T11:32:59.653Z,33.27
2019-01-24T11:35:31.397Z,34.40
2019-01-24T11:38:00.127Z,31.60
2019-01-24T11:40:29.294Z,33.90
2019-01-24T11:42:58.268Z,33.20
2019-01-24T11:45:32.786Z,30.97
2019-01-24T11:48:03.959Z,34.73
2019-01-24T11:50:32.641Z,34.57
2019-01-24T11:53:01.301Z,31.13
2019-01-24T11:55:30.145Z,33.27
2019-01-24T11:57:58.785Z,34.20
2019-01-24T12:00:31.782Z,32.63
2019-01-24T12:03:02.366Z,31.70
2019-01-24T12:05:31.458Z,32.50
2019-01-24T12:08:00.304Z,33.77
2019-01-24T12:10:30.479Z,35.20
2019-01-24T12:12:59.211Z,32.07
2019-01-24T12:15:32.047Z,34.60
2019-01-24T12:18:00.837Z,33.13
2019-01-24T12:20:29.855Z,34.63
2019-01-24T12:22:58.618Z,32.43
2019-01-24T12:25:27.544Z,32.43
2019-01-24T12:27:56.229Z,33.47
2019-01-24T12:30:30.573Z,32.97
2019-01-24T12:32:59.833Z,31.60
2019-01-24T12:35:28.988Z,33.80
2019-01-24T12:37:57.725Z,32.40
2019-01-24T12:40:26.879Z,35.43
2019-01-24T12:42:55.769Z,30.60
2019-01-24T12:45:29.813Z,32.83
2019-01-24T12:47:58.607Z,31.87
2019-01-24T12:50:27.248Z,31.67
2019-01-24T12:52:55.982Z,33.23
2019-01-24T12:55:24.718Z,35.13
2019-01-24T12:57:53.505Z,36.00
2019-01-24T13:00:27.487Z,32.20
2019-01-24T13:02:56.751Z,33.83
2019-01-24T13:05:25.439Z,33.00
2019-01-24T13:07:54.182Z,31.80
2019-01-24T13:10:25.267Z,31.63
2019-01-24T13:12:54.007Z,34.00
2019-01-24T13:15:25.532Z,30.87
2019-01-24T13:17:54.291Z,33.43
2019-01-24T13:20:23.133Z,31.83
2019-01-24T13:22:51.815Z,33.50
2019-01-24T13:25:31.664Z,31.60
2019-01-24T13:28:00.554Z,30.87
2019-01-24T13:30:31.126Z,30.93
2019-01-24T13:33:00.822Z,32.27
2019-01-24T13:35:30.751Z,32.37
2019-01-24T13:38:20.524Z,31.50
2019-01-24T13:40:49.217Z,32.67
2019-01-24T13:43:17.916Z,33.73
2019-01-24T13:45:46.741Z,35.83
2019-01-24T13:48:15.570Z,32.33
2019-01-24T13:50:44.415Z,29.80
2019-01-24T13:53:13.200Z,33.83
2019-01-24T13:55:41.853Z,32.47
2019-01-24T13:58:10.573Z,30.67
2019-01-24T14:00:39.486Z,31.27
2019-01-24T14:03:11.823Z,31.30
2019-01-24T14:05:40.717Z,32.10
2019-01-24T14:08:09.407Z,32.00
2019-01-24T14:10:38.597Z,30.70
2019-01-24T14:13:07.483Z,30.00
2019-01-24T14:15:36.212Z,32.20
2019-01-24T14:18:05.916Z,27.67
2019-01-24T14:20:34.704Z,31.33
2019-01-24T14:23:03.381Z,30.27
2019-01-24T14:25:32.687Z,30.37
2019-01-24T14:28:01.437Z,29.97
2019-01-24T14:30:30.266Z,31.63
2019-01-24T14:32:59.044Z,31.27
2019-01-24T14:35:27.896Z,31.80
2019-01-24T14:37:56.862Z,29.13
2019-01-24T14:40:27.490Z,31.07
2019-01-24T14:42:55.858Z,29.67
2019-01-24T14:45:29.534Z,33.33
2019-01-24T14:47:58.288Z,29.73
2019-01-24T14:50:31.441Z,31.07
2019-01-24T14:53:00.156Z,29.10
2019-01-24T14:55:28.909Z,29.43
2019-01-24T14:57:57.846Z,29.75
2019-01-24T15:00:32.185Z,29.27
2019-01-24T15:03:02.069Z,28.73
2019-01-24T15:05:30.793Z,30.50
2019-01-24T15:07:59.633Z,28.53
2019-01-24T15:10:29.284Z,25.90
2019-01-24T15:12:58.743Z,28.83
2019-01-24T15:15:27.457Z,26.17
2019-01-24T15:17:56.518Z,28.30
2019-01-24T15:20:27.189Z,28.50
2019-01-24T15:22:57.652Z,27.20
2019-01-24T15:25:26.362Z,26.37
2019-01-24T15:27:55.064Z,29.30
2019-01-24T15:30:25.550Z,27.00
2019-01-24T15:32:54.343Z,27.17
2019-01-24T15:35:23.560Z,27.05
2019-01-24T15:37:54.630Z,28.30
2019-01-24T15:40:28.343Z,28.00
2019-01-24T15:42:58.048Z,27.20
2019-01-24T15:45:27.320Z,27.80
2019-01-24T15:47:56.706Z,29.72
2019-01-24T15:50:26.113Z,27.13
2019-01-24T15:52:55.164Z,27.05
2019-01-24T15:55:24.187Z,28.38
2019-01-24T15:57:53.182Z,28.90
2019-01-24T16:00:27.498Z,29.72
2019-01-24T16:02:56.693Z,29.12
2019-01-24T16:05:25.832Z,26.15
2019-01-24T16:08:01.317Z,26.70
2019-01-24T16:10:25.823Z,28.32
2019-01-24T16:12:54.857Z,30.05
2019-01-24T16:15:37.519Z,29.95
2019-01-24T16:18:08.065Z,27.67
2019-01-24T16:20:37.155Z,30.65
2019-01-24T16:23:06.647Z,27.35
2019-01-24T16:25:36.069Z,27.40
2019-01-24T16:28:05.550Z,28.90
2019-01-24T16:30:36.093Z,28.73
2019-01-24T16:33:07.125Z,28.73
2019-01-24T16:35:36.367Z,26.87
2019-01-24T16:38:09.684Z,28.45
2019-01-24T16:40:36.208Z,28.90
2019-01-24T16:43:05.743Z,27.73
2019-01-24T16:45:34.778Z,28.10
2019-01-24T16:48:03.839Z,29.02
2019-01-24T16:50:32.864Z,28.02
2019-01-24T16:53:01.717Z,29.05
2019-01-24T16:55:31.146Z,30.65
2019-01-24T16:58:00.823Z,29.90
2019-01-24T17:00:39.373Z,28.67
2019-01-24T17:03:08.471Z,28.25
2019-01-24T17:05:37.371Z,30.50
2019-01-24T17:08:07.259Z,29.12
2019-01-24T17:10:38.355Z,27.98
2019-01-24T17:13:07.516Z,27.85
2019-01-24T17:15:36.560Z,30.05
2019-01-24T17:18:05.797Z,31.10
2019-01-24T17:20:34.713Z,29.18
2019-01-24T17:23:04.251Z,29.15
2019-01-24T17:25:33.796Z,30.55
2019-01-24T17:28:02.844Z,29.90
2019-01-24T17:30:32.766Z,30.30
2019-01-24T17:33:02.205Z,27.25
2019-01-24T17:35:31.358Z,29.97
2019-01-24T17:38:00.392Z,29.35
2019-01-24T17:40:34.255Z,32.10
2019-01-24T17:43:03.359Z,28.42
2019-01-24T17:45:32.732Z,30.17
2019-01-24T17:48:02.078Z,27.95
2019-01-24T17:50:31.144Z,30.68
2019-01-24T17:53:00.544Z,32.50
2019-01-24T17:55:35.167Z,30.55
2019-01-24T17:58:06.299Z,28.65
2019-01-24T18:00:37.188Z,28.27
2019-01-24T18:03:06.280Z,30.82
2019-01-24T18:05:34.873Z,29.67
2019-01-24T18:08:04.226Z,32.00
2019-01-24T18:10:33.314Z,29.63
2019-01-24T18:13:02.647Z,30.50
2019-01-24T18:15:37.275Z,30.88
2019-01-24T18:18:09.204Z,29.05
2019-01-24T18:20:38.937Z,30.50
2019-01-24T18:23:09.506Z,29.45
2019-01-24T18:25:38.739Z,29.70
2019-01-24T18:28:09.808Z,30.90
2019-01-24T18:30:39.071Z,27.93
2019-01-24T18:33:08.616Z,29.35
2019-01-24T18:35:38.498Z,27.60
2019-01-24T18:38:07.892Z,29.55
2019-01-24T18:40:37.492Z,33.33
2019-01-24T18:43:09.527Z,30.48
2019-01-24T18:45:41.623Z,31.70
2019-01-24T18:48:11.166Z,30.48
2019-01-24T18:50:40.217Z,33.85
2019-01-24T18:53:09.250Z,31.27
2019-01-24T18:55:38.533Z,30.65
2019-01-24T18:58:07.759Z,31.80
2019-01-24T19:00:41.677Z,30.70
2019-01-24T19:03:10.829Z,31.85
2019-01-24T19:05:39.856Z,32.60
2019-01-24T19:08:10.652Z,32.15
2019-01-24T19:10:39.829Z,30.40
2019-01-24T19:13:09.476Z,32.40
2019-01-24T19:15:38.917Z,32.33
2019-01-24T19:18:09.015Z,33.02
2019-01-24T19:20:38.070Z,33.28
2019-01-24T19:23:06.831Z,30.97
2019-01-24T19:25:35.867Z,32.33
2019-01-24T19:28:06.190Z,32.10
2019-01-24T19:30:35.182Z,31.50
2019-01-24T19:33:04.578Z,31.50
2019-01-24T19:35:34.135Z,32.53
2019-01-24T19:38:03.194Z,32.53
2019-01-24T19:40:33.901Z,33.45
2019-01-24T19:43:02.789Z,29.85
2019-01-24T19:45:31.955Z,30.90
2019-01-24T19:48:00.639Z,31.93
2019-01-24T19:50:30.782Z,33.63
2019-01-24T19:52:59.542Z,30.90
2019-01-24T19:55:30.498Z,33.48
2019-01-24T19:57:59.266Z,29.70
2019-01-24T20:00:30.534Z,31.93
2019-01-24T20:02:59.912Z,31.52
2019-01-24T20:05:29.340Z,30.65
2019-01-24T20:07:58.514Z,34.13
2019-01-24T20:10:29.553Z,32.03
2019-01-24T20:12:59.196Z,30.57
2019-01-24T20:15:30.141Z,32.10
2019-01-24T20:17:59.291Z,32.70
2019-01-24T20:20:28.894Z,32.15
2019-01-24T20:22:57.960Z,31.52
2019-01-24T20:25:29.005Z,34.18
2019-01-24T20:27:58.036Z,33.30
2019-01-24T20:30:31.474Z,36.45
2019-01-24T20:33:01.445Z,32.55
2019-01-24T20:35:39.431Z,31.82
2019-01-24T20:38:09.942Z,32.17
2019-01-24T20:40:39.514Z,31.77
2019-01-24T20:43:10.133Z,32.67
2019-01-24T20:45:39.552Z,35.10
2019-01-24T20:48:09.100Z,31.65
2019-01-24T20:50:38.133Z,34.00
2019-01-24T20:53:07.225Z,30.75
2019-01-24T20:55:36.692Z,31.85
2019-01-24T20:58:06.127Z,30.75
2019-01-24T21:00:35.405Z,32.50
2019-01-24T21:03:05.855Z,35.23
2019-01-24T21:05:34.857Z,34.33
2019-01-24T21:08:04.655Z,35.30
2019-01-24T21:10:34.057Z,32.10
2019-01-24T21:13:02.937Z,35.55
2019-01-24T21:15:32.347Z,32.38
2019-01-24T21:18:01.400Z,32.40
2019-01-24T21:20:32.557Z,33.80
2019-01-24T21:23:01.832Z,34.75
2019-01-24T21:25:32.036Z,34.30
2019-01-24T21:28:00.943Z,34.35
2019-01-24T21:30:32.402Z,33.65
2019-01-24T21:33:01.433Z,35.45
2019-01-24T21:35:30.522Z,31.90
2019-01-24T21:37:59.620Z,31.85
2019-01-24T21:40:28.713Z,34.98
2019-01-24T21:42:57.812Z,32.28
2019-01-24T21:45:32.123Z,33.18
2019-01-24T21:48:01.037Z,33.75
2019-01-24T21:50:31.947Z,34.55
2019-01-24T21:53:01.925Z,35.05
2019-01-24T21:55:31.013Z,36.58
2019-01-24T21:58:00.560Z,35.70
2019-01-24T22:00:30.058Z,36.60
2019-01-24T22:02:59.132Z,34.08
2019-01-24T22:05:29.611Z,33.90
2019-01-24T22:07:58.837Z,33.50
2019-01-24T22:10:29.897Z,35.00
2019-01-24T22:12:59.433Z,33.75
2019-01-24T22:15:31.349Z,34.98
2019-01-24T22:18:00.337Z,33.93
2019-01-24T22:20:29.674Z,33.78
2019-01-24T22:22:58.769Z,35.83
2019-01-24T22:25:35.254Z,34.38
2019-01-24T22:28:05.390Z,33.63
2019-01-24T22:30:38.494Z,35.83
2019-01-24T22:33:07.952Z,34.85
2019-01-24T22:35:37.197Z,35.92
2019-01-24T22:38:07.360Z,35.15
2019-01-24T22:40:37.701Z,36.35
2019-01-24T22:43:06.879Z,36.28
2019-01-24T22:45:36.181Z,35.00
2019-01-24T22:48:06.255Z,33.10
2019-01-24T22:50:35.901Z,37.10
2019-01-24T22:53:05.732Z,35.30
2019-01-24T22:55:34.725Z,35.17
2019-01-24T22:58:04.063Z,31.75
2019-01-24T23:00:50.097Z,33.53
2019-01-24T23:03:24.981Z,33.48
2019-01-24T23:05:54.387Z,34.95
2019-01-24T23:08:23.682Z,34.80
2019-01-24T23:10:53.006Z,33.30
2019-01-24T23:13:22.117Z,34.95
2019-01-24T23:15:51.047Z,33.20
2019-01-24T23:18:20.618Z,37.83
2019-01-24T23:20:49.671Z,34.55
2019-01-24T23:23:18.492Z,32.90
2019-01-24T23:25:47.544Z,35.33
2019-01-24T23:28:17.602Z,35.03
2019-01-24T23:30:46.958Z,35.50
2019-01-24T23:33:16.403Z,35.30
2019-01-24T23:35:45.333Z,33.08
2019-01-24T23:38:14.783Z,34.27
2019-01-24T23:40:45.060Z,33.83
2019-01-24T23:43:14.104Z,34.60
2019-01-24T23:45:43.474Z,36.40
2019-01-24T23:48:12.502Z,36.68
2019-01-24T23:50:41.417Z,34.75
2019-01-24T23:53:11.099Z,34.95
2019-01-24T23:55:39.783Z,35.40
2019-01-24T23:58:08.735Z,36.90
